KAIK/AIK METAR and TAF weather

Enter ICAO airport designator
Station Type Date Time Source
KAIK METAR 2021/09/28 16:55 UTC NOAA

KAIK 281655Z AUTO 24013KT 10SM SCT044 28/16 A3006 RMK AO2 T02800163


Station Type Date Time Source
KAIK Decoded METAR 2021/09/28 16:55 UTC NOAA

Station name not available
Sep 28, 2021 - 12:55 PM EDT / 2021.09.28 1655 UTC
Wind: from the WSW (240 degrees) at 15 MPH (13 KT):0
Visibility: 10 mile(s):0
Sky conditions: partly cloudy
Temperature: 82.4 F (28.0 C)
Dew Point: 61.3 F (16.3 C)
Relative Humidity: 49%
Pressure (altimeter): 30.06 in. Hg (1017 hPa)
ob: KAIK 281655Z AUTO 24013KT 10SM SCT044 28/16 A3006 RMK AO2 T02800163
cycle: 17

Station Type Date Time Source
KAIK TAF UTC NOAA

Error!

Example: see airport list